Time;durP1;ratioP1;P1;durP2;ratioP2;P2;SDS_P1;SDS_P2;PMS_P1;PMS_P2;Temp;Humidity;BMP_temperature;BMP_pressure;BME280_temperature;BME280_humidity;BME280_pressure;Samples;Min_cycle;Max_cycle;Signal;HPM_P1;HPM_P2
2021/06/02 00:00:16;;;;;;;;;;;;;;;11.42;61.06;99595.94;1722857;82;21155;-74
2021/06/02 00:02:52;;;;;;;;;;;;;;;11.41;60.94;99590.16;1716804;82;20335;-74
2021/06/02 00:05:18;;;;;;;;;;;;;;;11.39;60.36;99592.45;1720563;82;20168;-74
2021/06/02 00:07:44;;;;;;;;;;;;;;;11.38;61.01;99588.05;1721324;82;20173;-72
2021/06/02 00:10:11;;;;;;;;;;;;;;;11.37;61.01;99591.95;1699481;81;20466;-73
2021/06/02 00:12:40;;;;;;;;;;;;;;;11.38;61.78;99590.02;1733099;82;20452;-74
2021/06/02 00:15:07;;;;;;;;;;;;;;;11.38;61.01;99591.39;1732899;82;20161;-75
2021/06/02 00:17:36;;;;;;;;;;;;;;;11.39;60.93;99593.83;1734973;82;20157;-74
2021/06/02 00:20:07;;;;;;;;;;;;;;;11.40;60.65;99591.86;1742848;82;20236;-74
2021/06/02 00:22:33;;;;;;;;;;;;;;;11.39;60.69;99586.11;1733952;81;20145;-74
2021/06/02 00:24:59;;;;;;;;;;;;;;;11.37;61.25;99575.96;1736773;82;21138;-73
2021/06/02 00:27:26;;;;;;;;;;;;;;;11.37;61.55;99576.78;1747853;82;20149;-73
2021/06/02 00:29:52;;;;;;;;;;;;;;;11.37;61.19;99582.86;1735966;82;20423;-75
2021/06/02 00:32:20;;;;;;;;;;;;;;;11.36;60.86;99583.41;1741468;82;20176;-73
2021/06/02 00:34:49;;;;;;;;;;;;;;;11.36;60.97;99572.97;1740340;82;20228;-75
2021/06/02 00:37:15;;;;;;;;;;;;;;;11.35;61.16;99577.66;1740034;82;21149;-73
2021/06/02 00:39:52;;;;;;;;;;;;;;;11.32;61.19;99579.14;1741233;82;20134;-73
2021/06/02 00:42:19;;;;;;;;;;;;;;;11.31;61.06;99571.19;1741487;82;20521;-74
2021/06/02 00:44:45;;;;;;;;;;;;;;;11.26;61.84;99574.89;1741407;82;20427;-75
2021/06/02 00:47:11;;;;;;;;;;;;;;;11.25;61.84;99568.33;1736453;82;20263;-74
2021/06/02 00:49:37;;;;;;;;;;;;;;;11.23;61.46;99570.59;1739805;82;21832;-74
2021/06/02 00:52:06;;;;;;;;;;;;;;;11.21;61.36;99559.88;1740679;82;20333;-75
2021/06/02 00:54:35;;;;;;;;;;;;;;;11.17;61.21;99558.34;1740933;82;20137;-74
2021/06/02 00:57:13;;;;;;;;;;;;;;;11.15;61.33;99559.25;1736795;82;20213;-72
2021/06/02 00:59:57;;;;;;;;;;;;;;;11.13;61.60;99557.94;1733740;82;20154;-75
2021/06/02 01:02:25;;;;;;;;;;;;;;;11.14;61.34;99560.37;1734775;82;21223;-75
2021/06/02 01:04:53;;;;;;;;;;;;;;;11.16;61.51;99557.28;1737229;82;20231;-74
2021/06/02 01:07:22;;;;;;;;;;;;;;;11.18;61.32;99555.02;1737502;82;20423;-75
2021/06/02 01:09:52;;;;;;;;;;;;;;;11.17;61.06;99551.44;1736404;82;20156;-75
2021/06/02 01:12:23;;;;;;;;;;;;;;;11.15;60.91;99552.36;1732538;82;20207;-74
2021/06/02 01:14:50;;;;;;;;;;;;;;;11.13;61.40;99545.52;1743458;82;21342;-74
2021/06/02 01:17:20;;;;;;;;;;;;;;;11.13;61.49;99546.34;1726345;82;20424;-75
2021/06/02 01:19:48;;;;;;;;;;;;;;;11.13;61.64;99549.10;1733801;82;20196;-73
2021/06/02 01:22:15;;;;;;;;;;;;;;;11.12;61.46;99544.73;1743492;82;20382;-75
2021/06/02 01:24:43;;;;;;;;;;;;;;;11.12;61.22;99541.98;1741959;82;20486;-74
2021/06/02 01:27:11;;;;;;;;;;;;;;;11.09;61.08;99539.84;1739484;81;21994;-74
2021/06/02 01:29:41;;;;;;;;;;;;;;;11.07;61.54;99543.52;1739594;82;20823;-74
2021/06/02 01:32:23;;;;;;;;;;;;;;;11.06;61.42;99539.94;1742853;82;20493;-72
2021/06/02 01:35:04;;;;;;;;;;;;;;;11.05;61.60;99543.02;1741497;82;20180;-73
2021/06/02 01:37:52;;;;;;;;;;;;;;;11.06;61.89;99546.00;1741945;82;20434;-74
2021/06/02 01:40:55;;;;;;;;;;;;;;;11.04;61.56;99548.27;1740484;82;21177;-72
2021/06/02 01:43:34;;;;;;;;;;;;;;;11.04;61.92;99545.51;1638366;87;20187;-74
2021/06/02 01:46:07;;;;;;;;;;;;;;;11.04;61.44;99547.71;1663231;85;20155;-73
2021/06/02 01:48:37;;;;;;;;;;;;;;;11.04;61.65;99549.64;1669981;85;20252;-73
2021/06/02 01:51:25;;;;;;;;;;;;;;;11.03;61.78;99552.17;1672300;84;20143;-74
2021/06/02 01:54:02;;;;;;;;;;;;;;;11.01;62.38;99548.91;1671297;85;21170;-74
2021/06/02 01:56:42;;;;;;;;;;;;;;;11.01;62.12;99555.81;1670768;85;20465;-74
2021/06/02 01:59:43;;;;;;;;;;;;;;;11.01;62.35;99553.05;1672466;85;20143;-75
2021/06/02 02:02:32;;;;;;;;;;;;;;;11.01;62.29;99556.63;1671862;85;20369;-75
2021/06/02 02:05:14;;;;;;;;;;;;;;;11.00;62.26;99549.50;1672003;85;20300;-74
2021/06/02 02:07:44;;;;;;;;;;;;;;;11.00;62.01;99561.09;1659758;85;21538;-74
2021/06/02 02:13:48;;;;;;;;;;;;;;;10.98;62.24;99566.11;1712109;83;20156;-74
2021/06/02 02:16:24;;;;;;;;;;;;;;;10.99;62.34;99567.72;1721069;83;20490;-75
2021/06/02 02:19:14;;;;;;;;;;;;;;;10.98;62.12;99564.73;1724370;82;20174;-72
2021/06/02 02:22:09;;;;;;;;;;;;;;;10.95;62.21;99565.61;1642986;82;21241;-75
2021/06/02 02:25:04;;;;;;;;;;;;;;;10.95;62.32;99559.30;1722671;82;20158;-74
2021/06/02 02:27:55;;;;;;;;;;;;;;;10.97;62.51;99557.61;1722030;82;20173;-75
2021/06/02 02:30:30;;;;;;;;;;;;;;;10.98;62.66;99557.84;1719419;82;20434;-73
2021/06/02 02:33:19;;;;;;;;;;;;;;;10.96;62.62;99560.92;1720695;82;20153;-72
2021/06/02 02:35:59;;;;;;;;;;;;;;;10.97;62.82;99564.50;1717400;82;21102;-74
2021/06/02 02:38:56;;;;;;;;;;;;;;;10.96;62.70;99565.05;1720055;82;20196;-73
2021/06/02 02:41:39;;;;;;;;;;;;;;;10.97;62.58;99563.91;1725179;82;20177;-74
2021/06/02 02:44:26;;;;;;;;;;;;;;;10.97;62.68;99563.12;1724256;82;20195;-72
2021/06/02 02:47:18;;;;;;;;;;;;;;;10.97;62.75;99569.42;1722915;82;20212;-74
2021/06/02 02:49:48;;;;;;;;;;;;;;;10.97;62.51;99568.05;1718681;82;21811;-76
2021/06/02 02:52:53;;;;;;;;;;;;;;;10.95;62.52;99574.47;1726337;82;20171;-72
2021/06/02 02:55:37;;;;;;;;;;;;;;;10.95;62.57;99575.84;1721973;82;20140;-72
2021/06/02 02:58:18;;;;;;;;;;;;;;;10.97;62.88;99576.91;1720512;82;20144;-75
2021/06/02 03:01:05;;;;;;;;;;;;;;;10.95;62.83;99582.16;1723370;82;20174;-72
2021/06/02 03:03:34;;;;;;;;;;;;;;;10.97;62.87;99584.58;1720713;82;21911;-73
2021/06/02 03:06:23;;;;;;;;;;;;;;;10.99;62.91;99585.64;1722308;82;20260;-72
2021/06/02 03:09:04;;;;;;;;;;;;;;;10.97;62.84;99586.55;1704123;82;20171;-73
2021/06/02 03:11:41;;;;;;;;;;;;;;;10.98;63.08;99589.55;1711300;81;20343;-73
2021/06/02 03:14:31;;;;;;;;;;;;;;;10.97;63.08;99586.55;1730268;82;20183;-73
2021/06/02 03:17:26;;;;;;;;;;;;;;;10.96;63.09;99582.97;1744149;82;21991;-74
2021/06/02 03:20:14;;;;;;;;;;;;;;;10.97;63.08;99586.55;1746530;82;20175;-73
2021/06/02 03:23:03;;;;;;;;;;;;;;;10.98;63.24;99582.65;1747619;82;20174;-74
2021/06/02 03:25:43;;;;;;;;;;;;;;;10.99;63.44;99587.84;1746427;82;20170;-72
2021/06/02 03:28:48;;;;;;;;;;;;;;;11.00;63.65;99588.10;1719894;82;20208;-75
2021/06/02 03:31:41;;;;;;;;;;;;;;;11.03;63.41;99594.34;1744381;82;21062;-72
2021/06/02 03:34:22;;;;;;;;;;;;;;;11.02;63.30;99587.78;1740523;82;20542;-73
2021/06/02 03:37:28;;;;;;;;;;;;;;;11.01;63.52;99593.85;1746125;82;20494;-72
2021/06/02 03:40:13;;;;;;;;;;;;;;;11.04;63.37;99591.00;1728918;82;20226;-72
2021/06/02 03:42:56;;;;;;;;;;;;;;;11.05;63.24;99598.16;1730339;82;20170;-74
2021/06/02 03:45:30;;;;;;;;;;;;;;;11.06;63.22;99606.66;1743261;82;21574;-73
2021/06/02 03:48:18;;;;;;;;;;;;;;;11.06;63.54;99613.00;1747309;82;20174;-73
2021/06/02 03:51:01;;;;;;;;;;;;;;;11.07;63.41;99602.80;1746260;82;20190;-73
2021/06/02 03:53:55;;;;;;;;;;;;;;;11.06;63.80;99598.39;1746818;82;20143;-74
2021/06/02 03:57:00;;;;;;;;;;;;;;;11.08;63.57;99593.38;1748360;82;20147;-74
2021/06/02 03:59:42;;;;;;;;;;;;;;;11.07;63.57;99608.31;1745390;82;21507;-73
2021/06/02 04:02:37;;;;;;;;;;;;;;;11.08;63.84;99600.27;1746650;82;20475;-72
2021/06/02 04:05:23;;;;;;;;;;;;;;;11.09;63.50;99596.37;1744670;81;20195;-75
2021/06/02 04:08:27;;;;;;;;;;;;;;;11.10;63.69;99593.88;1708935;83;20149;-75
2021/06/02 04:11:23;;;;;;;;;;;;;;;11.09;63.78;99592.23;1727902;82;20131;-74
2021/06/02 04:13:58;;;;;;;;;;;;;;;11.10;63.76;99591.11;1717065;82;21237;-74
2021/06/02 04:16:31;;;;;;;;;;;;;;;11.06;63.93;99588.19;1729409;82;20123;-74
2021/06/02 04:19:01;;;;;;;;;;;;;;;11.06;64.24;99582.67;1729953;82;20163;-73
2021/06/02 04:21:28;;;;;;;;;;;;;;;11.10;64.17;99588.92;1719501;82;20669;-73
2021/06/02 04:23:56;;;;;;;;;;;;;;;11.12;64.23;99592.98;1728075;82;20204;-74
2021/06/02 04:26:22;;;;;;;;;;;;;;;11.15;64.41;99586.83;1725965;82;21066;-73
2021/06/02 04:28:48;;;;;;;;;;;;;;;11.20;64.45;99591.37;1729111;82;20174;-72
2021/06/02 04:31:15;;;;;;;;;;;;;;;11.25;64.27;99593.15;1728065;82;20144;-72
2021/06/02 04:33:43;;;;;;;;;;;;;;;11.29;64.23;99589.41;1728534;82;20136;-73
2021/06/02 04:36:13;;;;;;;;;;;;;;;11.36;64.03;99588.14;1724851;82;20217;-74
2021/06/02 04:38:40;;;;;;;;;;;;;;;11.40;64.14;99585.78;1729552;82;21205;-73
2021/06/02 04:41:08;;;;;;;;;;;;;;;11.41;63.21;99575.57;1726102;82;20144;-72
2021/06/02 04:43:38;;;;;;;;;;;;;;;11.41;63.60;99574.19;1724872;82;20170;-72
2021/06/02 04:46:07;;;;;;;;;;;;;;;11.44;63.93;99579.88;1726192;82;20159;-75
2021/06/02 04:48:34;;;;;;;;;;;;;;;11.50;63.63;99587.41;1725885;82;20120;-73
2021/06/02 04:51:36;;;;;;;;;;;;;;;11.50;63.72;99586.02;1717726;82;22032;-74
2021/06/02 04:54:29;;;;;;;;;;;;;;;11.49;63.69;99580.27;1731324;82;20198;-73
2021/06/02 04:57:16;;;;;;;;;;;;;;;11.50;63.55;99585.23;1705962;82;20217;-73
2021/06/02 05:00:13;;;;;;;;;;;;;;;11.50;63.73;99596.27;1718912;82;20206;-74
2021/06/02 05:03:15;;;;;;;;;;;;;;;11.52;63.90;99587.08;1718188;82;20443;-75
2021/06/02 05:06:02;;;;;;;;;;;;;;;11.56;63.76;99593.58;1727112;82;21264;-72
2021/06/02 05:08:57;;;;;;;;;;;;;;;11.55;64.11;99589.17;1728134;82;20132;-72
2021/06/02 05:11:50;;;;;;;;;;;;;;;11.57;64.23;99595.19;1723853;82;20143;-73
2021/06/02 05:14:27;;;;;;;;;;;;;;;11.62;64.16;99596.41;1703162;83;20593;-72
2021/06/02 05:17:10;;;;;;;;;;;;;;;11.62;64.04;99601.92;1705116;83;20426;-73
2021/06/02 05:20:20;;;;;;;;;;;;;;;11.64;64.13;99594.14;1704009;83;20616;-75
2021/06/02 05:22:56;;;;;;;;;;;;;;;11.71;64.35;99591.45;1690608;83;20403;-74
2021/06/02 05:25:59;;;;;;;;;;;;;;;11.75;63.84;99591.05;1724161;83;20158;-73
2021/06/02 05:28:40;;;;;;;;;;;;;;;11.75;63.68;99593.81;1723480;83;20121;-75
2021/06/02 05:31:40;;;;;;;;;;;;;;;11.78;63.87;99594.53;1721891;83;20160;-74
2021/06/02 05:34:22;;;;;;;;;;;;;;;11.84;63.92;99595.98;1725354;83;21182;-77
2021/06/02 05:37:14;;;;;;;;;;;;;;;11.93;63.96;99602.88;1718063;83;20161;-75
2021/06/02 05:40:04;;;;;;;;;;;;;;;11.94;63.66;99594.85;1720608;83;20140;-75
2021/06/02 05:42:46;;;;;;;;;;;;;;;11.98;63.69;99597.19;1701431;83;20184;-75
2021/06/02 05:45:47;;;;;;;;;;;;;;;12.04;63.75;99599.21;1676511;85;20140;-77
2021/06/02 05:48:34;;;;;;;;;;;;;;;12.13;63.96;99606.92;1702570;84;21186;-73
2021/06/02 05:51:37;;;;;;;;;;;;;;;12.23;63.78;99607.14;1703316;83;20164;-74
2021/06/02 05:54:17;;;;;;;;;;;;;;;12.32;63.80;99609.88;1705436;83;20180;-72
2021/06/02 05:57:02;;;;;;;;;;;;;;;12.48;63.27;99614.88;1701744;84;20181;-73
2021/06/02 05:59:35;;;;;;;;;;;;;;;12.62;63.24;99607.75;1703314;83;20406;-73
2021/06/02 06:02:17;;;;;;;;;;;;;;;12.75;62.51;99610.86;1705558;83;21157;-72
2021/06/02 06:05:01;;;;;;;;;;;;;;;12.80;61.81;99615.38;1697046;84;20233;-73
2021/06/02 06:07:49;;;;;;;;;;;;;;;12.86;62.08;99612.66;1713242;83;20138;-73
2021/06/02 06:10:24;;;;;;;;;;;;;;;12.93;61.58;99613.52;1712234;83;20209;-73
2021/06/02 06:13:22;;;;;;;;;;;;;;;12.96;61.39;99618.97;1720461;81;20131;-73
2021/06/02 06:16:12;;;;;;;;;;;;;;;12.97;60.64;99618.63;1749226;81;21534;-73
2021/06/02 06:18:56;;;;;;;;;;;;;;;12.97;61.10;99615.05;1751892;81;20186;-72
2021/06/02 06:21:44;;;;;;;;;;;;;;;13.01;61.29;99617.39;1749845;81;20182;-71
2021/06/02 06:24:12;;;;;;;;;;;;;;;13.04;61.29;99611.19;1746817;81;20166;-74
2021/06/02 06:27:08;;;;;;;;;;;;;;;13.08;61.10;99622.40;1743883;82;20171;-72
2021/06/02 06:29:38;;;;;;;;;;;;;;;13.04;60.92;99620.87;1730063;82;21186;-72
2021/06/02 06:32:05;;;;;;;;;;;;;;;13.00;60.72;99622.67;1741539;82;20435;-72
2021/06/02 06:34:33;;;;;;;;;;;;;;;12.99;60.93;99614.15;1750704;81;20436;-73
2021/06/02 06:37:00;;;;;;;;;;;;;;;12.96;60.59;99612.87;1749533;80;20170;-73
2021/06/02 06:39:47;;;;;;;;;;;;;;;12.94;60.93;99612.95;1749771;81;20215;-72
2021/06/02 06:42:16;;;;;;;;;;;;;;;12.94;60.98;99612.95;1751051;81;22011;-73
2021/06/02 06:44:43;;;;;;;;;;;;;;;12.96;61.34;99617.02;1751370;81;20192;-71
2021/06/02 06:47:12;;;;;;;;;;;;;;;13.01;61.61;99614.63;1748612;82;20456;-73
2021/06/02 06:49:37;;;;;;;;;;;;;;;13.03;61.11;99613.13;1741715;81;20595;-72
2021/06/02 06:52:04;;;;;;;;;;;;;;;13.03;60.66;99612.34;1751070;80;20260;-72
2021/06/02 06:54:31;;;;;;;;;;;;;;;13.01;60.85;99612.69;1752061;81;21107;-74
2021/06/02 06:56:57;;;;;;;;;;;;;;;13.01;60.52;99609.92;1695041;83;20202;-72
2021/06/02 06:59:23;;;;;;;;;;;;;;;13.04;60.45;99605.66;1687412;84;20183;-72
2021/06/02 07:01:49;;;;;;;;;;;;;;;13.06;60.50;99610.29;1748172;81;20174;-74
2021/06/02 07:04:16;;;;;;;;;;;;;;;13.12;61.21;99611.70;1714331;83;20173;-74
2021/06/02 07:06:45;;;;;;;;;;;;;;;13.17;60.83;99596.07;1751757;81;21524;-73
2021/06/02 07:09:12;;;;;;;;;;;;;;;13.24;60.90;99596.33;1749452;81;20143;-72
2021/06/02 07:11:43;;;;;;;;;;;;;;;13.36;60.88;99596.41;1741821;81;20135;-73
2021/06/02 07:14:12;;;;;;;;;;;;;;;13.46;60.19;99586.88;1743495;81;20202;-73
2021/06/02 07:16:40;;;;;;;;;;;;;;;13.54;60.14;99586.62;1740989;82;20234;-72
2021/06/02 07:19:07;;;;;;;;;;;;;;;13.61;60.08;99588.25;1742261;82;21096;-74
2021/06/02 07:21:36;;;;;;;;;;;;;;;13.68;59.71;99585.53;1742302;82;20148;-73
2021/06/02 07:24:04;;;;;;;;;;;;;;;13.73;59.39;99583.94;1740308;81;20522;-73
2021/06/02 07:26:30;;;;;;;;;;;;;;;13.67;59.12;99590.25;1750984;81;20191;-73
2021/06/02 07:28:57;;;;;;;;;;;;;;;13.68;59.58;99593.83;1741587;82;20575;-73
2021/06/02 07:31:23;;;;;;;;;;;;;;;13.71;59.43;99600.07;1719220;81;21214;-72
2021/06/02 07:33:51;;;;;;;;;;;;;;;13.72;58.56;99589.22;1702063;83;20161;-73
2021/06/02 07:36:17;;;;;;;;;;;;;;;13.72;59.17;99597.52;1687206;83;20144;-73
2021/06/02 07:38:44;;;;;;;;;;;;;;;13.82;59.84;99591.57;1685454;83;20165;-72
2021/06/02 07:41:10;;;;;;;;;;;;;;;13.94;59.99;99588.03;1677637;85;20157;-74
2021/06/02 07:43:38;;;;;;;;;;;;;;;14.06;59.19;99592.80;1667746;85;20227;-73
2021/06/02 07:46:05;;;;;;;;;;;;;;;14.17;58.48;99597.91;1679554;85;20144;-74
2021/06/02 07:48:31;;;;;;;;;;;;;;;14.24;58.93;99596.78;1679835;85;20171;-74
2021/06/02 07:50:58;;;;;;;;;;;;;;;14.33;58.57;99599.46;1716294;83;20142;-74
2021/06/02 07:53:26;;;;;;;;;;;;;;;14.42;58.42;99600.72;1674644;85;20173;-74
2021/06/02 07:55:54;;;;;;;;;;;;;;;14.48;58.32;99593.81;1716720;83;21150;-73
2021/06/02 07:58:20;;;;;;;;;;;;;;;14.59;57.70;99592.20;1706582;83;20209;-74
2021/06/02 08:00:46;;;;;;;;;;;;;;;14.64;58.01;99600.08;1668775;85;20536;-73
2021/06/02 08:03:13;;;;;;;;;;;;;;;14.69;57.59;99595.09;1665140;85;20132;-73
2021/06/02 08:05:40;;;;;;;;;;;;;;;14.72;57.36;99594.39;1681737;85;20251;-73
2021/06/02 08:08:08;;;;;;;;;;;;;;;14.70;57.30;99605.04;1682881;85;21663;-73
2021/06/02 08:10:34;;;;;;;;;;;;;;;14.72;57.83;99595.77;1682083;85;20179;-74
2021/06/02 08:13:02;;;;;;;;;;;;;;;14.79;58.34;99598.57;1681634;83;20223;-74
2021/06/02 08:15:30;;;;;;;;;;;;;;;14.90;57.77;99603.09;1682422;85;20488;-75
2021/06/02 08:17:56;;;;;;;;;;;;;;;14.93;56.03;99607.36;1682291;85;20161;-74
2021/06/02 08:20:24;;;;;;;;;;;;;;;14.91;55.32;99600.56;1681412;85;20240;-72
2021/06/02 08:22:50;;;;;;;;;;;;;;;14.89;55.15;99597.32;1682508;85;20599;-73
2021/06/02 08:25:16;;;;;;;;;;;;;;;14.88;55.65;99603.44;1682233;85;20429;-72
2021/06/02 08:27:44;;;;;;;;;;;;;;;14.92;55.50;99596.05;1681417;85;20429;-74
2021/06/02 08:30:11;;;;;;;;;;;;;;;14.96;54.73;99604.48;1682297;85;20213;-74
2021/06/02 08:32:37;;;;;;;;;;;;;;;14.95;55.34;99607.83;1682525;85;21574;-72
2021/06/02 08:35:06;;;;;;;;;;;;;;;14.99;55.26;99607.13;1681428;85;20492;-72
2021/06/02 08:37:32;;;;;;;;;;;;;;;15.04;55.03;99616.61;1682330;85;20467;-73
2021/06/02 08:39:58;;;;;;;;;;;;;;;15.04;54.97;99625.75;1682290;85;20148;-73
2021/06/02 08:42:25;;;;;;;;;;;;;;;15.02;54.58;99625.28;1681722;85;20184;-72
2021/06/02 08:44:52;;;;;;;;;;;;;;;14.95;54.45;99624.48;1682275;85;21199;-74
2021/06/02 08:47:19;;;;;;;;;;;;;;;14.93;54.71;99614.30;1682595;85;20434;-73
2021/06/02 08:49:46;;;;;;;;;;;;;;;14.92;54.22;99626.56;1681603;85;20153;-75
2021/06/02 08:52:12;;;;;;;;;;;;;;;14.89;54.83;99627.27;1682434;85;20214;-72
2021/06/02 08:54:39;;;;;;;;;;;;;;;14.94;55.32;99626.22;1682426;85;20465;-72
2021/06/02 08:57:07;;;;;;;;;;;;;;;15.00;55.05;99629.55;1681829;85;21107;-74
2021/06/02 08:59:34;;;;;;;;;;;;;;;15.01;54.15;99624.24;1682108;85;20171;-73
2021/06/02 09:02:00;;;;;;;;;;;;;;;15.00;54.21;99630.36;1682719;85;20542;-73
2021/06/02 09:04:27;;;;;;;;;;;;;;;15.02;54.18;99628.05;1681426;85;20449;-73
2021/06/02 09:06:54;;;;;;;;;;;;;;;15.03;54.57;99629.66;1682109;85;20515;-73
2021/06/02 09:09:20;;;;;;;;;;;;;;;15.09;54.80;99624.12;1659570;85;22241;-73
2021/06/02 09:11:51;;;;;;;;;;;;;;;15.17;54.86;99621.55;1681934;85;20187;-74
2021/06/02 09:14:27;;;;;;;;;;;;;;;15.27;54.91;99627.23;1683792;84;20472;-73
2021/06/02 09:16:56;;;;;;;;;;;;;;;15.30;54.35;99620.37;1744759;82;20162;-72
2021/06/02 09:19:44;;;;;;;;;;;;;;;15.27;54.02;99615.53;1746929;82;20163;-73
2021/06/02 09:22:15;;;;;;;;;;;;;;;15.25;54.53;99611.50;1745665;82;21555;-72
2021/06/02 09:24:59;;;;;;;;;;;;;;;15.22;55.35;99607.44;1747928;82;20147;-77
2021/06/02 09:27:47;;;;;;;;;;;;;;;15.22;55.01;99612.98;1749040;82;20143;-73
2021/06/02 09:30:21;;;;;;;;;;;;;;;15.21;53.64;99612.77;1735487;82;20476;-72
2021/06/02 09:32:52;;;;;;;;;;;;;;;15.11;54.09;99624.34;1742639;82;20456;-74
2021/06/02 09:35:18;;;;;;;;;;;;;;;15.02;54.08;99625.28;1739667;82;21170;-71
2021/06/02 09:37:50;;;;;;;;;;;;;;;14.99;53.72;99621.00;1747679;82;20169;-71
2021/06/02 09:40:22;;;;;;;;;;;;;;;14.99;54.53;99624.59;1711768;83;20185;-72
2021/06/02 09:42:49;;;;;;;;;;;;;;;15.09;54.53;99624.70;1668610;84;20495;-72
2021/06/02 09:45:17;;;;;;;;;;;;;;;15.19;53.92;99632.55;1711358;83;20149;-71
2021/06/02 09:48:00;;;;;;;;;;;;;;;15.19;53.38;99627.56;1684135;85;20869;-74
2021/06/02 09:50:32;;;;;;;;;;;;;;;15.17;54.04;99634.04;1746589;82;20182;-73
2021/06/02 09:53:01;;;;;;;;;;;;;;;15.19;54.18;99637.28;1742043;82;20135;-71
2021/06/02 09:55:38;;;;;;;;;;;;;;;15.20;54.27;99638.32;1681050;85;20183;-73
2021/06/02 09:58:11;;;;;;;;;;;;;;;15.18;54.43;99648.16;1681236;84;20269;-73
2021/06/02 10:00:56;;;;;;;;;;;;;;;15.10;53.75;99644.34;1734985;82;21185;-74
2021/06/02 10:03:27;;;;;;;;;;;;;;;15.03;54.17;99639.97;1743178;82;20172;-73
2021/06/02 10:05:52;;;;;;;;;;;;;;;14.95;54.10;99636.95;1740579;82;20154;-71
2021/06/02 10:08:33;;;;;;;;;;;;;;;14.91;54.19;99642.95;1739491;80;20528;-74
2021/06/02 10:11:11;;;;;;;;;;;;;;;14.87;54.59;99635.69;1744784;82;20210;-71
2021/06/02 10:13:38;;;;;;;;;;;;;;;14.79;54.95;99638.78;1740981;82;21294;-74
2021/06/02 10:16:08;;;;;;;;;;;;;;;14.72;54.19;99642.13;1703489;83;20416;-74
2021/06/02 10:18:38;;;;;;;;;;;;;;;14.69;54.86;99648.34;1685256;83;20220;-71
2021/06/02 10:21:09;;;;;;;;;;;;;;;14.69;54.96;99649.73;1705871;83;20245;-71
2021/06/02 10:23:43;;;;;;;;;;;;;;;14.68;54.62;99643.96;1706279;83;20202;-75
2021/06/02 10:26:13;;;;;;;;;;;;;;;14.71;55.23;99637.72;1701237;83;21839;-73
2021/06/02 10:28:42;;;;;;;;;;;;;;;14.73;55.52;99651.48;1703118;83;20165;-73
2021/06/02 10:31:10;;;;;;;;;;;;;;;14.77;55.17;99646.63;1706326;83;20478;-72
2021/06/02 10:33:36;;;;;;;;;;;;;;;14.78;54.63;99646.28;1705898;83;20178;-72
2021/06/02 10:36:07;;;;;;;;;;;;;;;14.79;54.27;99652.05;1705849;83;20428;-73
2021/06/02 10:38:48;;;;;;;;;;;;;;;14.81;54.40;99651.16;1704700;83;21084;-75
2021/06/02 10:41:32;;;;;;;;;;;;;;;14.86;54.27;99657.66;1695894;83;20145;-75
2021/06/02 10:44:02;;;;;;;;;;;;;;;14.90;53.87;99654.41;1703697;84;20185;-73
2021/06/02 10:46:30;;;;;;;;;;;;;;;14.94;54.55;99652.56;1704474;82;20537;-72
2021/06/02 10:49:01;;;;;;;;;;;;;;;14.95;53.57;99647.23;1701036;83;20172;-70
2021/06/02 10:51:38;;;;;;;;;;;;;;;14.96;53.01;99658.58;1703261;83;21135;-74
2021/06/02 10:54:05;;;;;;;;;;;;;;;14.99;53.12;99652.91;1643761;86;20139;-73
2021/06/02 10:56:33;;;;;;;;;;;;;;;15.02;53.16;99657.19;1649273;87;20198;-74
2021/06/02 10:59:02;;;;;;;;;;;;;;;15.05;52.45;99657.87;1707379;83;20142;-73
2021/06/02 11:01:30;;;;;;;;;;;;;;;15.11;53.01;99661.23;1702263;82;20181;-74
2021/06/02 11:04:02;;;;;;;;;;;;;;;15.15;52.70;99664.13;1693570;84;20757;-73
2021/06/02 11:06:33;;;;;;;;;;;;;;;15.21;53.00;99673.83;1631738;86;20154;-72
2021/06/02 11:09:05;;;;;;;;;;;;;;;15.25;52.51;99665.02;1688742;84;20177;-74
2021/06/02 11:11:35;;;;;;;;;;;;;;;15.28;53.07;99664.34;1693200;83;20206;-75
2021/06/02 11:14:24;;;;;;;;;;;;;;;15.32;53.28;99676.36;1707428;83;20434;-71
2021/06/02 11:16:57;;;;;;;;;;;;;;;15.38;52.87;99669.17;1727871;82;20185;-74
2021/06/02 11:19:26;;;;;;;;;;;;;;;15.37;53.03;99657.25;1746677;81;20518;-73
2021/06/02 11:21:57;;;;;;;;;;;;;;;15.38;52.95;99671.95;1744077;82;20139;-73
2021/06/02 11:24:35;;;;;;;;;;;;;;;15.40;52.80;99673.80;1750051;81;20190;-73
2021/06/02 11:27:13;;;;;;;;;;;;;;;15.41;52.24;99672.06;1742680;81;20162;-72
2021/06/02 11:29:53;;;;;;;;;;;;;;;15.42;52.31;99663.95;1747616;82;21124;-76
2021/06/02 11:32:29;;;;;;;;;;;;;;;15.46;52.47;99659.91;1741578;82;20132;-75
2021/06/02 11:35:00;;;;;;;;;;;;;;;15.48;52.76;99665.92;1737910;82;20135;-74
2021/06/02 11:37:29;;;;;;;;;;;;;;;15.52;53.06;99668.24;1712004;83;20434;-75
2021/06/02 11:39:57;;;;;;;;;;;;;;;15.59;53.47;99667.65;1676932;83;20204;-72
2021/06/02 11:42:39;;;;;;;;;;;;;;;15.62;52.55;99665.55;1714661;83;21133;-72
2021/06/02 11:45:10;;;;;;;;;;;;;;;15.63;51.96;99667.16;1711139;83;20423;-73
2021/06/02 11:48:01;;;;;;;;;;;;;;;15.64;52.43;99667.41;1691785;83;20151;-72
2021/06/02 11:50:26;;;;;;;;;;;;;;;15.66;52.13;99666.45;1563128;90;20176;-72
2021/06/02 11:52:59;;;;;;;;;;;;;;;15.68;52.51;99668.88;1565631;90;20467;-74
2021/06/02 11:55:25;;;;;;;;;;;;;;;15.70;52.22;99661.00;1590063;89;21095;-74
2021/06/02 11:57:51;;;;;;;;;;;;;;;15.73;52.34;99665.85;1586746;89;20184;-75
2021/06/02 12:00:21;;;;;;;;;;;;;;;15.77;52.66;99658.45;1597758;89;20339;-75
2021/06/02 12:02:57;;;;;;;;;;;;;;;15.79;52.76;99664.47;1561194;91;20436;-73
2021/06/02 12:05:25;;;;;;;;;;;;;;;15.81;51.97;99659.34;1586217;89;20175;-75
2021/06/02 12:07:58;;;;;;;;;;;;;;;15.83;52.79;99656.23;1575823;91;21138;-72
2021/06/02 12:10:26;;;;;;;;;;;;;;;15.86;52.20;99658.87;1575719;91;20151;-72
2021/06/02 12:12:55;;;;;;;;;;;;;;;15.86;51.68;99660.27;1563074;90;20180;-73
2021/06/02 12:15:23;;;;;;;;;;;;;;;15.86;51.61;99661.09;1582377;90;20145;-74
2021/06/02 12:17:50;;;;;;;;;;;;;;;15.88;52.04;99669.85;1570052;90;20184;-76
2021/06/02 12:20:20;;;;;;;;;;;;;;;15.89;52.24;99658.98;1581721;90;21604;-74
2021/06/02 12:22:49;;;;;;;;;;;;;;;15.93;51.87;99661.27;1567909;90;20216;-73
2021/06/02 12:25:19;;;;;;;;;;;;;;;15.96;51.73;99661.16;1585878;89;20543;-73
2021/06/02 12:27:50;;;;;;;;;;;;;;;16.00;52.10;99664.86;1566120;90;20274;-72
2021/06/02 12:30:23;;;;;;;;;;;;;;;16.05;52.39;99668.78;1563496;91;20193;-72
2021/06/02 12:32:58;;;;;;;;;;;;;;;16.13;52.79;99665.63;1575124;91;21143;-71
2021/06/02 12:35:44;;;;;;;;;;;;;;;16.21;52.78;99659.68;1562254;90;20159;-72
2021/06/02 12:38:17;;;;;;;;;;;;;;;16.30;52.64;99653.96;1568238;91;20659;-72
2021/06/02 12:40:55;;;;;;;;;;;;;;;16.38;52.12;99668.28;1575268;90;20174;-73
2021/06/02 12:43:26;;;;;;;;;;;;;;;16.46;52.09;99658.74;1568771;90;20161;-74
2021/06/02 12:45:53;;;;;;;;;;;;;;;16.53;51.65;99666.68;1595024;89;21183;-73
2021/06/02 12:48:33;;;;;;;;;;;;;;;16.59;50.82;99667.81;1572343;89;20156;-73
2021/06/02 12:51:01;;;;;;;;;;;;;;;16.63;50.71;99672.89;1560379;90;20162;-74
2021/06/02 12:53:41;;;;;;;;;;;;;;;16.69;50.06;99662.29;1592663;89;20229;-72
2021/06/02 12:56:09;;;;;;;;;;;;;;;16.72;50.12;99662.98;1590778;89;20341;-75
2021/06/02 12:58:35;;;;;;;;;;;;;;;16.77;50.14;99666.86;1590035;89;21171;-73
2021/06/02 13:01:13;;;;;;;;;;;;;;;16.79;49.45;99667.32;1589422;89;20186;-71
2021/06/02 13:03:46;;;;;;;;;;;;;;;16.79;48.85;99668.13;1560334;90;20188;-74
2021/06/02 13:06:20;;;;;;;;;;;;;;;16.82;48.60;99676.33;1577161;90;20191;-76
2021/06/02 13:08:47;;;;;;;;;;;;;;;16.82;49.04;99672.16;1563512;90;20229;-73
2021/06/02 13:11:35;;;;;;;;;;;;;;;16.82;49.25;99666.59;1567849;90;21840;-74
2021/06/02 13:13:49;;;;;;;;;;;;;;;16.82;48.71;99679.12;1555844;90;20208;-77
2021/06/02 13:16:16;;;;;;;;;;;;;;;16.78;48.57;99679.05;1574826;90;20213;-74
2021/06/02 13:19:02;;;;;;;;;;;;;;;16.74;48.90;99673.97;1564881;90;20180;-74
2021/06/02 13:21:31;;;;;;;;;;;;;;;16.73;49.42;99681.28;1570625;90;20237;-74
2021/06/02 13:24:14;;;;;;;;;;;;;;;16.72;49.19;99674.11;1565222;90;20555;-73
2021/06/02 13:26:48;;;;;;;;;;;;;;;16.69;48.97;99667.28;1568373;90;20293;-73
2021/06/02 13:29:14;;;;;;;;;;;;;;;16.67;49.27;99686.30;1558721;90;20168;-74
2021/06/02 13:31:47;;;;;;;;;;;;;;;16.63;48.92;99683.41;1582083;90;20145;-74